createdAt,value
2017-12-19T00:00:02.917Z,82.28
2017-12-19T00:01:13.025Z,82.18
2017-12-19T00:02:23.160Z,82.37
2017-12-19T00:03:33.440Z,82.28
2017-12-19T00:04:43.682Z,82.18
2017-12-19T00:05:53.815Z,81.81
2017-12-19T00:07:04.217Z,82.28
2017-12-19T00:08:14.495Z,82.18
2017-12-19T00:09:24.623Z,81.71
2017-12-19T00:10:34.821Z,81.71
2017-12-19T00:11:44.962Z,82.09
2017-12-19T00:12:54.817Z,82.18
2017-12-19T00:14:04.774Z,82.28
2017-12-19T00:15:14.929Z,82.37
2017-12-19T00:16:25.054Z,82.47
2017-12-19T00:17:34.951Z,82.56
2017-12-19T00:18:44.533Z,82.28
2017-12-19T00:19:54.681Z,82.47
2017-12-19T00:21:04.819Z,82.56
2017-12-19T00:22:14.773Z,81.99
2017-12-19T00:23:24.909Z,82.37
2017-12-19T00:24:35.018Z,81.99
2017-12-19T00:25:45.250Z,82.47
2017-12-19T00:26:55.490Z,81.99
2017-12-19T00:28:05.241Z,81.81
2017-12-19T00:29:14.562Z,81.81
2017-12-19T00:30:24.423Z,81.9
2017-12-19T00:31:34.598Z,82.28
2017-12-19T00:32:44.758Z,81.43
2017-12-19T00:33:54.857Z,81.71
2017-12-19T00:35:04.980Z,81.33
2017-12-19T00:36:14.906Z,81.81
2017-12-19T00:37:25.015Z,82.18
2017-12-19T00:38:34.826Z,81.9
2017-12-19T00:39:45.028Z,82.09
2017-12-19T00:40:54.908Z,82.09
2017-12-19T00:42:05.022Z,81.81
2017-12-19T00:43:14.779Z,81.81
2017-12-19T00:44:24.959Z,82.18
2017-12-19T00:45:36.065Z,81.9
2017-12-19T00:46:46.169Z,81.99
2017-12-19T00:47:56.278Z,82.09
2017-12-19T00:49:05.881Z,81.9
2017-12-19T00:50:16.004Z,81.99
2017-12-19T00:51:25.852Z,82.18
2017-12-19T00:52:36.051Z,82.18
2017-12-19T00:53:46.210Z,82.37
2017-12-19T00:54:56.471Z,82.18
2017-12-19T00:56:06.312Z,82.37
2017-12-19T00:57:16.418Z,81.99
2017-12-19T00:58:26.546Z,82.18
2017-12-19T00:59:36.706Z,82.28
2017-12-19T01:00:46.818Z,82.18
2017-12-19T01:01:57.011Z,82.18
2017-12-19T01:03:08.107Z,82.28
2017-12-19T01:04:17.946Z,82.28
2017-12-19T01:05:28.120Z,82.28
2017-12-19T01:06:38.222Z,81.99
2017-12-19T01:07:48.339Z,82.47
2017-12-19T01:08:58.450Z,82.28
2017-12-19T01:10:08.592Z,82.18
2017-12-19T01:11:18.761Z,82.37
2017-12-19T01:12:28.944Z,82.37
2017-12-19T01:13:38.706Z,82.28
2017-12-19T01:14:48.896Z,82.47
2017-12-19T01:15:59.005Z,81.99
2017-12-19T01:17:09.150Z,82.18
2017-12-19T01:18:19.356Z,82.28
2017-12-19T01:19:29.593Z,82.47
2017-12-19T01:20:39.693Z,81.99
2017-12-19T01:21:49.813Z,82.09
2017-12-19T01:22:59.895Z,81.81
2017-12-19T01:24:10.110Z,81.71
2017-12-19T01:25:20.317Z,81.9
2017-12-19T01:26:30.528Z,82.09
2017-12-19T01:27:40.758Z,81.52
2017-12-19T01:28:50.609Z,81.43
2017-12-19T01:30:00.201Z,81.43
2017-12-19T01:31:10.071Z,81.9
2017-12-19T01:32:19.918Z,82.09
2017-12-19T01:33:29.809Z,81.9
2017-12-19T01:34:40.943Z,82.09
2017-12-19T01:35:51.073Z,81.9
2017-12-19T01:37:01.205Z,81.71
2017-12-19T01:38:11.330Z,81.9
2017-12-19T01:39:21.491Z,81.99
2017-12-19T01:40:31.683Z,81.81
2017-12-19T01:41:41.869Z,82.09
2017-12-19T01:42:52.001Z,82.18
2017-12-19T01:44:01.804Z,81.99
2017-12-19T01:45:11.990Z,81.99
2017-12-19T01:46:21.877Z,81.99
2017-12-19T01:47:32.005Z,82.09
2017-12-19T01:48:42.105Z,81.99
2017-12-19T01:49:52.207Z,81.99
2017-12-19T01:51:02.324Z,82.28
2017-12-19T01:52:12.232Z,82.37
2017-12-19T01:53:22.387Z,82.37
2017-12-19T01:54:32.512Z,82.28
2017-12-19T01:55:42.620Z,82.18
2017-12-19T01:56:52.801Z,82.18
2017-12-19T01:58:02.720Z,82.28
2017-12-19T01:59:12.846Z,82.47
2017-12-19T02:00:22.691Z,82.09
2017-12-19T02:01:32.301Z,81.99
2017-12-19T02:02:42.114Z,82.09
2017-12-19T02:03:52.258Z,81.9
2017-12-19T02:05:01.999Z,81.9
2017-12-19T02:06:11.876Z,81.9
2017-12-19T02:07:21.987Z,81.81
2017-12-19T02:08:32.098Z,81.9
2017-12-19T02:09:42.246Z,82.09
2017-12-19T02:10:52.366Z,82.09
2017-12-19T02:12:02.257Z,81.9
2017-12-19T02:13:12.445Z,81.81
2017-12-19T02:14:22.529Z,81.81
2017-12-19T02:15:32.651Z,81.81
2017-12-19T02:16:42.747Z,81.9
2017-12-19T02:17:52.899Z,81.81
2017-12-19T02:19:02.792Z,81.81
2017-12-19T02:20:12.640Z,81.9
2017-12-19T02:21:22.740Z,81.99
2017-12-19T02:22:32.845Z,81.9
2017-12-19T02:23:43.022Z,82.28
2017-12-19T02:24:53.301Z,81.99
2017-12-19T02:26:03.449Z,82.09
2017-12-19T02:27:13.341Z,81.81
2017-12-19T02:28:23.448Z,81.81
2017-12-19T02:29:33.604Z,82.09
2017-12-19T02:30:43.466Z,82.09
2017-12-19T02:31:53.312Z,82.09
2017-12-19T02:33:02.794Z,81.99
2017-12-19T02:34:12.897Z,82.09
2017-12-19T02:35:22.847Z,81.9
2017-12-19T02:36:32.881Z,82.18
2017-12-19T02:37:42.755Z,81.99
2017-12-19T02:38:52.854Z,82.09
2017-12-19T02:40:02.726Z,82.09
2017-12-19T02:41:12.590Z,82.18
2017-12-19T02:42:22.700Z,82.37
2017-12-19T02:43:32.584Z,82.28
2017-12-19T02:44:42.084Z,81.99
2017-12-19T02:45:51.957Z,82.09
2017-12-19T02:47:01.825Z,82.37
2017-12-19T02:48:11.934Z,82.18
2017-12-19T02:49:22.048Z,82.28
2017-12-19T02:50:32.199Z,82.18
2017-12-19T02:51:41.944Z,82.18
2017-12-19T02:52:52.051Z,81.99
2017-12-19T02:54:02.158Z,82.28
2017-12-19T02:55:12.008Z,82.37
2017-12-19T02:56:22.196Z,82.18
2017-12-19T02:57:32.284Z,82.28
2017-12-19T02:58:42.125Z,82.18
2017-12-19T02:59:52.228Z,82.28
2017-12-19T03:01:02.343Z,82.28
2017-12-19T03:02:13.427Z,81.99
2017-12-19T03:03:23.539Z,82.56
2017-12-19T03:04:33.634Z,82.09
2017-12-19T03:05:43.740Z,82.18
2017-12-19T03:06:53.864Z,82.37
2017-12-19T03:08:04.006Z,82.47
2017-12-19T03:09:14.093Z,82.94
2017-12-19T03:10:24.272Z,82.85
2017-12-19T03:11:34.403Z,82.75
2017-12-19T03:12:44.534Z,82.94
2017-12-19T03:13:54.654Z,82.94
2017-12-19T03:15:04.653Z,82.85
2017-12-19T03:16:14.867Z,82.94
2017-12-19T03:17:25.026Z,82.66
2017-12-19T03:18:35.152Z,82.66
2017-12-19T03:19:44.996Z,82.94
2017-12-19T03:20:55.115Z,82.75
2017-12-19T03:22:05.231Z,82.85
2017-12-19T03:23:15.340Z,82.85
2017-12-19T03:24:25.436Z,82.66
2017-12-19T03:25:35.600Z,82.94
2017-12-19T03:26:45.472Z,82.47
2017-12-19T03:27:56.547Z,82.56
2017-12-19T03:29:06.645Z,82.56
2017-12-19T03:30:16.495Z,82.28
2017-12-19T03:31:26.365Z,82.94
2017-12-19T03:32:36.118Z,82.75
2017-12-19T03:33:46.031Z,82.85
2017-12-19T03:34:56.167Z,82.66
2017-12-19T03:36:06.011Z,82.94
2017-12-19T03:37:15.884Z,82.85
2017-12-19T03:38:26.038Z,82.56
2017-12-19T03:39:36.267Z,83.13
2017-12-19T03:40:46.110Z,82.94
2017-12-19T03:41:55.960Z,82.94
2017-12-19T03:43:06.081Z,82.85
2017-12-19T03:44:16.284Z,82.75
2017-12-19T03:45:26.133Z,82.85
2017-12-19T03:46:35.964Z,82.94
2017-12-19T03:47:46.076Z,82.75
2017-12-19T03:48:56.217Z,82.94
2017-12-19T03:50:06.047Z,82.94
2017-12-19T03:51:15.883Z,82.85
2017-12-19T03:52:25.773Z,82.85
2017-12-19T03:53:36.026Z,82.66
2017-12-19T03:54:46.364Z,82.94
2017-12-19T03:55:56.487Z,82.66
2017-12-19T03:57:06.685Z,82.66
2017-12-19T03:58:16.904Z,82.85
2017-12-19T03:59:26.735Z,82.94
2017-12-19T04:00:36.580Z,82.66
2017-12-19T04:01:46.453Z,82.94
2017-12-19T04:02:56.554Z,82.94
2017-12-19T04:04:06.488Z,82.75
2017-12-19T04:05:16.361Z,82.94
2017-12-19T04:06:26.556Z,82.75
2017-12-19T04:07:36.244Z,82.85
2017-12-19T04:08:46.090Z,82.94
2017-12-19T04:09:56.272Z,82.94
2017-12-19T04:11:06.503Z,82.66
2017-12-19T04:12:16.780Z,83.04
2017-12-19T04:13:26.928Z,82.85
2017-12-19T04:14:36.758Z,82.94
2017-12-19T04:15:46.896Z,82.94
2017-12-19T04:16:56.378Z,82.85
2017-12-19T04:18:06.479Z,82.85
2017-12-19T04:19:15.722Z,82.94
2017-12-19T04:20:25.740Z,82.94
2017-12-19T04:21:36.025Z,83.04
2017-12-19T04:22:46.238Z,83.13
2017-12-19T04:23:56.355Z,83.42
2017-12-19T04:25:06.210Z,83.7
2017-12-19T04:26:15.909Z,82.85
2017-12-19T04:27:25.757Z,83.7
2017-12-19T04:28:35.903Z,83.51
2017-12-19T04:29:46.014Z,83.04
2017-12-19T04:30:56.285Z,83.7
2017-12-19T04:32:06.145Z,83.04
2017-12-19T04:33:15.997Z,83.51
2017-12-19T04:34:26.098Z,83.61
2017-12-19T04:35:35.927Z,83.04
2017-12-19T04:36:46.029Z,83.32
2017-12-19T04:37:56.179Z,82.94
2017-12-19T04:39:06.324Z,83.04
2017-12-19T04:40:16.161Z,82.66
2017-12-19T04:41:26.372Z,83.04
2017-12-19T04:42:36.500Z,82.85
2017-12-19T04:43:46.364Z,82.66
2017-12-19T04:44:56.214Z,82.75
2017-12-19T04:46:06.066Z,82.66
2017-12-19T04:47:16.168Z,82.75
2017-12-19T04:48:26.269Z,82.66
2017-12-19T04:49:36.497Z,82.85
2017-12-19T04:50:46.268Z,82.75
2017-12-19T04:51:56.463Z,82.94
2017-12-19T04:53:06.367Z,82.85
2017-12-19T04:54:16.562Z,82.94
2017-12-19T04:55:26.694Z,82.85
2017-12-19T04:56:36.558Z,82.56
2017-12-19T04:57:46.441Z,82.56
2017-12-19T04:58:56.562Z,82.18
2017-12-19T05:00:06.486Z,81.99
2017-12-19T05:01:16.108Z,82.18
2017-12-19T05:02:26.286Z,82.37
2017-12-19T05:03:36.388Z,81.99
2017-12-19T05:04:46.263Z,82.18
2017-12-19T05:05:56.428Z,82.18
2017-12-19T05:07:06.832Z,82.28
2017-12-19T05:08:16.680Z,82.94
2017-12-19T05:09:26.902Z,82.85
2017-12-19T05:10:36.559Z,82.94
2017-12-19T05:11:46.753Z,82.85
2017-12-19T05:12:56.374Z,82.66
2017-12-19T05:14:06.488Z,82.66
2017-12-19T05:15:16.619Z,82.47
2017-12-19T05:16:26.459Z,82.94
2017-12-19T05:17:36.522Z,82.56
2017-12-19T05:18:46.366Z,82.85
2017-12-19T05:19:56.506Z,83.04
2017-12-19T05:21:06.613Z,83.61
2017-12-19T05:22:16.733Z,83.23
2017-12-19T05:23:26.822Z,83.23
2017-12-19T05:24:36.935Z,83.23
2017-12-19T05:25:47.085Z,82.94
2017-12-19T05:26:57.241Z,83.51
2017-12-19T05:28:07.079Z,83.7
2017-12-19T05:29:16.952Z,84.46
2017-12-19T05:30:27.073Z,84.08
2017-12-19T05:31:37.189Z,83.8
2017-12-19T05:32:47.357Z,84.27
2017-12-19T05:33:57.570Z,84.08
2017-12-19T05:35:07.709Z,84.55
2017-12-19T05:36:17.838Z,85.03
2017-12-19T05:37:27.943Z,85.41
2017-12-19T05:38:37.721Z,85.13
2017-12-19T05:39:47.571Z,85.41
2017-12-19T05:40:57.252Z,85.03
2017-12-19T05:42:07.216Z,85.13
2017-12-19T05:43:17.378Z,84.84
2017-12-19T05:44:27.508Z,84.94
2017-12-19T05:45:37.630Z,84.94
2017-12-19T05:46:47.721Z,85.13
2017-12-19T05:47:57.829Z,85.5
2017-12-19T05:49:07.780Z,85.6
2017-12-19T05:50:17.883Z,85.31
2017-12-19T05:51:27.982Z,85.31
2017-12-19T05:52:37.887Z,85.78
2017-12-19T05:53:48.019Z,86.16
2017-12-19T05:54:58.192Z,86.45
2017-12-19T05:56:08.331Z,86.26
2017-12-19T05:57:18.527Z,86.45
2017-12-19T05:58:28.673Z,86.07
2017-12-19T05:59:38.458Z,86.07
2017-12-19T06:00:48.563Z,86.74
2017-12-19T06:01:58.433Z,86.83
2017-12-19T06:03:08.772Z,86.45
2017-12-19T06:04:18.938Z,86.93
2017-12-19T06:05:29.055Z,87.35
2017-12-19T06:06:39.181Z,87.16
2017-12-19T06:07:49.161Z,88.06
2017-12-19T06:08:59.288Z,87.87
2017-12-19T06:10:08.519Z,88.06
2017-12-19T06:11:18.621Z,87.77
2017-12-19T06:12:28.770Z,87.87
2017-12-19T06:13:38.888Z,87.77
2017-12-19T06:14:48.640Z,87.97
2017-12-19T06:15:58.842Z,87.77
2017-12-19T06:17:08.977Z,87.59
2017-12-19T06:18:18.876Z,88.06
2017-12-19T06:19:28.988Z,88.06
2017-12-19T06:20:38.820Z,87.77
2017-12-19T06:21:49.890Z,88.35
2017-12-19T06:23:00.012Z,88.16
2017-12-19T06:24:10.146Z,88.16
2017-12-19T06:25:19.900Z,88.35
2017-12-19T06:26:30.239Z,88.44
2017-12-19T06:27:40.351Z,88.25
2017-12-19T06:28:50.460Z,88.54
2017-12-19T06:30:00.596Z,88.25
2017-12-19T06:31:10.694Z,88.35
2017-12-19T06:32:20.823Z,89.2
2017-12-19T06:33:30.954Z,88.92
2017-12-19T06:34:40.815Z,88.63
2017-12-19T06:35:50.927Z,88.44
2017-12-19T06:37:00.795Z,88.25
2017-12-19T06:38:10.653Z,88.25
2017-12-19T06:39:20.504Z,88.25
2017-12-19T06:40:30.616Z,88.25
2017-12-19T06:41:40.755Z,88.44
2017-12-19T06:42:50.611Z,88.06
2017-12-19T06:44:00.715Z,88.44
2017-12-19T06:45:10.580Z,88.06
2017-12-19T06:46:20.332Z,87.97
2017-12-19T06:47:30.194Z,88.63
2017-12-19T06:48:40.542Z,88.06
2017-12-19T06:49:50.721Z,88.25
2017-12-19T06:51:00.853Z,88.54
2017-12-19T06:52:10.946Z,88.25
2017-12-19T06:53:21.105Z,88.35
2017-12-19T06:54:31.218Z,88.73
2017-12-19T06:55:41.437Z,88.73
2017-12-19T06:56:51.250Z,88.82
2017-12-19T06:58:01.357Z,89.01
2017-12-19T06:59:11.572Z,88.73
2017-12-19T07:00:21.830Z,88.82
2017-12-19T07:01:32.053Z,88.92
2017-12-19T07:02:41.851Z,89.11
2017-12-19T07:03:52.061Z,89.01
2017-12-19T07:05:01.909Z,89.2
2017-12-19T07:06:12.029Z,89.01
2017-12-19T07:07:21.786Z,89.2
2017-12-19T07:08:31.323Z,89.2
2017-12-19T07:09:41.239Z,89.39
2017-12-19T07:10:51.447Z,89.11
2017-12-19T07:12:01.657Z,88.92
2017-12-19T07:13:11.500Z,89.39
2017-12-19T07:14:21.606Z,89.01
2017-12-19T07:15:31.779Z,89.39
2017-12-19T07:16:41.679Z,89.01
2017-12-19T07:17:51.806Z,89.29
2017-12-19T07:19:02.013Z,89.01
2017-12-19T07:20:12.127Z,89.01
2017-12-19T07:21:22.247Z,89.2
2017-12-19T07:22:32.377Z,89.2
2017-12-19T07:23:42.261Z,88.92
2017-12-19T07:24:52.118Z,88.92
2017-12-19T07:26:03.326Z,89.48
2017-12-19T07:27:13.446Z,89.01
2017-12-19T07:28:23.579Z,89.11
2017-12-19T07:29:33.564Z,89.48
2017-12-19T07:30:43.676Z,88.82
2017-12-19T07:31:53.814Z,89.39
2017-12-19T07:33:03.684Z,89.2
2017-12-19T07:34:13.291Z,89.2
2017-12-19T07:35:23.451Z,89.2
2017-12-19T07:36:33.543Z,89.39
2017-12-19T07:37:43.647Z,89.39
2017-12-19T07:38:54.322Z,89.2
2017-12-19T07:40:04.536Z,89.48
2017-12-19T07:41:14.706Z,89.2
2017-12-19T07:42:24.558Z,89.29
2017-12-19T07:43:34.776Z,89.48
2017-12-19T07:44:44.898Z,89.39
2017-12-19T07:45:55.186Z,89.01
2017-12-19T07:47:05.366Z,89.48
2017-12-19T07:48:15.223Z,88.92
2017-12-19T07:49:25.054Z,88.92
2017-12-19T07:50:35.151Z,88.92
2017-12-19T07:51:45.039Z,88.82
2017-12-19T07:52:54.925Z,88.92
2017-12-19T07:54:05.036Z,89.11
2017-12-19T07:55:15.148Z,89.29
2017-12-19T07:56:25.235Z,89.39
2017-12-19T07:57:35.448Z,89.39
2017-12-19T07:58:45.347Z,89.11
2017-12-19T07:59:55.512Z,89.29
2017-12-19T08:01:05.292Z,89.01
2017-12-19T08:02:15.411Z,89.2
2017-12-19T08:03:25.557Z,89.34
2017-12-19T08:04:35.750Z,89.34
2017-12-19T08:05:45.347Z,89.34
2017-12-19T08:06:55.579Z,89.06
2017-12-19T08:08:05.516Z,88.77
2017-12-19T08:09:15.374Z,88.77
2017-12-19T08:10:25.248Z,88.87
2017-12-19T08:11:35.340Z,88.87
2017-12-19T08:12:45.481Z,88.68
2017-12-19T08:13:55.637Z,89.06
2017-12-19T08:15:05.516Z,89.11
2017-12-19T08:16:15.259Z,89.06
2017-12-19T08:17:26.341Z,89.15
2017-12-19T08:18:36.447Z,88.96
2017-12-19T08:19:46.650Z,88.96
2017-12-19T08:20:56.767Z,88.77
2017-12-19T08:22:06.619Z,89.06
2017-12-19T08:23:16.851Z,88.96
2017-12-19T08:24:27.034Z,89.34
2017-12-19T08:25:37.164Z,89.34
2017-12-19T08:26:47.077Z,89.06
2017-12-19T08:27:56.951Z,89.15
2017-12-19T08:29:06.793Z,89.34
2017-12-19T08:30:16.566Z,89.48
2017-12-19T08:31:26.679Z,89.43
2017-12-19T08:32:36.809Z,89.43
2017-12-19T08:33:47.904Z,89.11
2017-12-19T08:34:57.790Z,89.72
2017-12-19T08:36:07.636Z,89.43
2017-12-19T08:37:17.485Z,89.72
2017-12-19T08:38:27.728Z,89.2
2017-12-19T08:39:37.946Z,89.77
2017-12-19T08:40:48.112Z,89.62
2017-12-19T08:41:57.904Z,89.62
2017-12-19T08:43:09.010Z,89.81
2017-12-19T08:44:19.147Z,89.77
2017-12-19T08:45:28.633Z,89.72
2017-12-19T08:46:39.826Z,90.29
2017-12-19T08:47:50.067Z,90.1
2017-12-19T08:49:00.180Z,90.05
2017-12-19T08:50:10.346Z,90.1
2017-12-19T08:51:20.233Z,89.62
2017-12-19T08:52:30.454Z,89.81
2017-12-19T08:53:40.592Z,89.72
2017-12-19T08:54:50.349Z,90
2017-12-19T08:56:00.589Z,90.1
2017-12-19T08:57:10.197Z,90.19
2017-12-19T08:58:20.302Z,90
2017-12-19T08:59:30.402Z,90.1
2017-12-19T09:00:40.593Z,90
2017-12-19T09:01:50.788Z,90
2017-12-19T09:03:00.943Z,90.19
2017-12-19T09:04:11.202Z,90
2017-12-19T09:05:21.381Z,89.72
2017-12-19T09:06:31.486Z,89.91
2017-12-19T09:07:41.329Z,90.19
2017-12-19T09:08:51.476Z,90.38
2017-12-19T09:10:01.270Z,90.1
2017-12-19T09:11:11.389Z,90
2017-12-19T09:12:21.229Z,90
2017-12-19T09:13:31.109Z,90.19
2017-12-19T09:14:41.059Z,90.19
2017-12-19T09:15:51.196Z,90.76
2017-12-19T09:17:01.295Z,90.19
2017-12-19T09:18:11.458Z,90.1
2017-12-19T09:19:21.570Z,90.19
2017-12-19T09:20:31.446Z,90.38
2017-12-19T09:21:41.332Z,90.76
2017-12-19T09:22:51.468Z,90.38
2017-12-19T09:24:01.577Z,90.76
2017-12-19T09:25:11.741Z,90.57
2017-12-19T09:26:21.346Z,90.38
2017-12-19T09:27:31.450Z,90.86
2017-12-19T09:28:41.375Z,90.67
2017-12-19T09:29:51.319Z,90.57
2017-12-19T09:31:01.495Z,90.67
2017-12-19T09:32:11.735Z,91.14
2017-12-19T09:33:21.893Z,90.95
2017-12-19T09:34:31.394Z,90.95
2017-12-19T09:35:41.515Z,91.05
2017-12-19T09:36:51.614Z,91.52
2017-12-19T09:38:01.783Z,91.52
2017-12-19T09:39:12.163Z,91.71
2017-12-19T09:40:22.273Z,91.61
2017-12-19T09:41:32.130Z,91.42
2017-12-19T09:42:42.253Z,91.99
2017-12-19T09:43:52.388Z,91.61
2017-12-19T09:45:02.668Z,91.52
2017-12-19T09:46:12.779Z,91.8
2017-12-19T09:47:23.094Z,91.9
2017-12-19T09:48:33.248Z,91.8
2017-12-19T09:49:43.174Z,91.99
2017-12-19T09:50:53.030Z,92.38
2017-12-19T09:52:02.970Z,92.38
2017-12-19T09:53:12.833Z,92.38
2017-12-19T09:54:22.985Z,92.28
2017-12-19T09:55:32.869Z,91.61
2017-12-19T09:56:42.669Z,92.09
2017-12-19T09:57:52.422Z,92.38
2017-12-19T09:59:02.511Z,92.09
2017-12-19T10:00:12.108Z,92.09
2017-12-19T10:01:22.263Z,92.09
2017-12-19T10:02:32.388Z,92.18
2017-12-19T10:03:42.580Z,91.99
2017-12-19T10:04:53.682Z,92.57
2017-12-19T10:06:03.781Z,92.57
2017-12-19T10:07:13.635Z,92.28
2017-12-19T10:08:23.499Z,92.47
2017-12-19T10:09:34.581Z,92.76
2017-12-19T10:10:44.704Z,92.66
2017-12-19T10:11:54.819Z,92.47
2017-12-19T10:13:05.011Z,92.38
2017-12-19T10:14:15.155Z,92.09
2017-12-19T10:15:25.136Z,92.85
2017-12-19T10:16:35.991Z,93.13
2017-12-19T10:17:46.148Z,93.04
2017-12-19T10:18:56.290Z,93.32
2017-12-19T10:20:06.106Z,93.13
2017-12-19T10:21:16.237Z,93.32
2017-12-19T10:22:26.354Z,92.94
2017-12-19T10:23:36.275Z,92.85
2017-12-19T10:24:46.442Z,92.94
2017-12-19T10:25:56.553Z,93.13
2017-12-19T10:27:06.722Z,93.32
2017-12-19T10:28:16.581Z,92.94
2017-12-19T10:29:26.692Z,93.13
2017-12-19T10:30:36.865Z,93.23
2017-12-19T10:31:47.116Z,93.41
2017-12-19T10:32:57.236Z,92.94
2017-12-19T10:34:07.374Z,92.85
2017-12-19T10:35:17.306Z,92.85
2017-12-19T10:36:27.443Z,92.85
2017-12-19T10:37:37.561Z,93.8
2017-12-19T10:38:47.659Z,93.32
2017-12-19T10:39:57.790Z,93.32
2017-12-19T10:41:07.951Z,93.41
2017-12-19T10:42:17.542Z,93.41
2017-12-19T10:43:27.738Z,93.51
2017-12-19T10:44:37.646Z,93.32
2017-12-19T10:45:47.503Z,93.32
2017-12-19T10:46:57.346Z,93.41
2017-12-19T10:48:07.103Z,93.32
2017-12-19T10:49:17.197Z,93.46
2017-12-19T10:50:26.820Z,93.32
2017-12-19T10:51:37.042Z,93.46
2017-12-19T10:52:47.251Z,93.32
2017-12-19T10:53:57.148Z,93.65
2017-12-19T10:55:07.261Z,93.8
2017-12-19T10:56:17.379Z,93.65
2017-12-19T10:57:27.515Z,93.75
2017-12-19T10:58:37.671Z,94.23
2017-12-19T10:59:47.778Z,94.13
2017-12-19T11:00:57.562Z,94.23
2017-12-19T11:02:07.682Z,93.94
2017-12-19T11:03:17.782Z,94.23
2017-12-19T11:04:28.007Z,94.32
2017-12-19T11:05:38.115Z,94.23
2017-12-19T11:06:48.014Z,94.23
2017-12-19T11:07:58.216Z,94.13
2017-12-19T11:09:08.364Z,94.32
2017-12-19T11:10:17.944Z,94.13
2017-12-19T11:11:28.055Z,93.94
2017-12-19T11:12:37.925Z,94.13
2017-12-19T11:13:48.067Z,93.84
2017-12-19T11:14:58.187Z,94.13
2017-12-19T11:16:07.831Z,94.32
2017-12-19T11:17:18.022Z,94.13
2017-12-19T11:18:27.882Z,94.23
2017-12-19T11:19:37.996Z,93.84
2017-12-19T11:20:47.913Z,94.03
2017-12-19T11:21:58.031Z,94.03
2017-12-19T11:23:08.142Z,94.13
2017-12-19T11:24:18.029Z,94.6
2017-12-19T11:25:27.932Z,94.03
2017-12-19T11:26:38.043Z,93.94
2017-12-19T11:27:47.639Z,93.94
2017-12-19T11:28:57.774Z,94.13
2017-12-19T11:30:07.640Z,94.32
2017-12-19T11:31:17.803Z,94.13
2017-12-19T11:32:28.039Z,94.13
2017-12-19T11:33:37.937Z,94.23
2017-12-19T11:34:48.035Z,94.32
2017-12-19T11:35:58.184Z,94.13
2017-12-19T11:37:08.390Z,94.03
2017-12-19T11:38:18.237Z,94.42
2017-12-19T11:39:28.478Z,94.32
2017-12-19T11:40:38.608Z,94.32
2017-12-19T11:41:48.728Z,94.03
2017-12-19T11:42:58.560Z,93.94
2017-12-19T11:44:08.699Z,94.13
2017-12-19T11:45:18.896Z,94.03
2017-12-19T11:46:29.048Z,94.23
2017-12-19T11:47:39.156Z,94.23
2017-12-19T11:48:49.285Z,94.42
2017-12-19T11:49:59.130Z,94.89
2017-12-19T11:51:09.244Z,94.42
2017-12-19T11:52:19.379Z,94.32
2017-12-19T11:53:29.524Z,94.23
2017-12-19T11:54:39.624Z,94.23
2017-12-19T11:55:49.771Z,93.94
2017-12-19T11:56:59.542Z,94.42
2017-12-19T11:58:09.653Z,94.23
2017-12-19T11:59:19.433Z,94.32
2017-12-19T12:00:29.567Z,94.32
2017-12-19T12:01:39.757Z,94.23
2017-12-19T12:02:49.388Z,94.98
2017-12-19T12:03:59.524Z,94.23
2017-12-19T12:05:09.627Z,94.89
2017-12-19T12:06:19.391Z,94.79
2017-12-19T12:07:29.513Z,94.89
2017-12-19T12:08:39.642Z,94.42
2017-12-19T12:09:49.764Z,94.7
2017-12-19T12:10:59.899Z,95.17
2017-12-19T12:12:11.150Z,94.98
2017-12-19T12:13:21.028Z,94.7
2017-12-19T12:14:30.521Z,94.32
2017-12-19T12:15:40.291Z,94.89
2017-12-19T12:16:50.589Z,94.89
2017-12-19T12:18:00.426Z,94.7
2017-12-19T12:19:10.540Z,94.6
2017-12-19T12:20:20.686Z,94.51
2017-12-19T12:21:30.922Z,94.7
2017-12-19T12:22:41.157Z,94.7
2017-12-19T12:23:51.444Z,94.7
2017-12-19T12:25:01.567Z,94.89
2017-12-19T12:26:11.710Z,94.89
2017-12-19T12:27:21.491Z,95.27
2017-12-19T12:28:31.615Z,94.79
2017-12-19T12:29:41.765Z,94.7
2017-12-19T12:30:51.880Z,94.89
2017-12-19T12:32:01.632Z,94.7
2017-12-19T12:33:11.771Z,95.17
2017-12-19T12:34:22.035Z,95.17
2017-12-19T12:35:31.926Z,94.79
2017-12-19T12:36:42.060Z,95.07
2017-12-19T12:37:52.173Z,95.07
2017-12-19T12:39:01.701Z,95.07
2017-12-19T12:40:12.798Z,95.07
2017-12-19T12:41:22.894Z,94.98
2017-12-19T12:42:33.017Z,95.07
2017-12-19T12:43:42.604Z,95.17
2017-12-19T12:44:52.741Z,95.12
2017-12-19T12:46:02.605Z,95.27
2017-12-19T12:47:12.527Z,95.74
2017-12-19T12:48:22.367Z,95.27
2017-12-19T12:49:31.473Z,95.84
2017-12-19T12:50:41.323Z,95.84
2017-12-19T12:51:51.209Z,95.7
2017-12-19T12:53:01.348Z,95.7
2017-12-19T12:54:11.467Z,95.55
2017-12-19T12:55:21.608Z,95.65
2017-12-19T12:56:31.754Z,95.79
2017-12-19T12:57:41.884Z,95.31
2017-12-19T12:58:51.632Z,95.65
2017-12-19T13:00:01.529Z,95.55
2017-12-19T13:01:11.376Z,95.46
2017-12-19T13:02:21.571Z,95.36
2017-12-19T13:03:31.201Z,95.65
2017-12-19T13:04:41.160Z,95.65
2017-12-19T13:05:51.026Z,95.7
2017-12-19T13:07:01.240Z,95.36
2017-12-19T13:08:11.088Z,95.31
2017-12-19T13:09:21.237Z,95.41
2017-12-19T13:10:30.738Z,95.98
2017-12-19T13:11:40.938Z,96.17
2017-12-19T13:12:50.880Z,95.93
2017-12-19T13:14:01.039Z,95.74
2017-12-19T13:15:10.779Z,95.74
2017-12-19T13:16:20.903Z,95.93
2017-12-19T13:17:31.003Z,95.93
2017-12-19T13:18:41.161Z,95.98
2017-12-19T13:19:51.384Z,96.03
2017-12-19T13:21:01.568Z,95.79
2017-12-19T13:22:11.733Z,95.93
2017-12-19T13:23:21.601Z,96.03
2017-12-19T13:24:31.726Z,96.31
2017-12-19T13:25:42.073Z,96.59
2017-12-19T13:26:52.224Z,96.5
2017-12-19T13:28:02.080Z,96.69
2017-12-19T13:29:12.184Z,96.31
2017-12-19T13:30:22.310Z,96.36
2017-12-19T13:31:32.184Z,96.26
2017-12-19T13:32:42.072Z,96.17
2017-12-19T13:33:51.948Z,95.98
2017-12-19T13:35:02.055Z,95.98
2017-12-19T13:36:12.190Z,96.03
2017-12-19T13:37:22.318Z,96.08
2017-12-19T13:38:32.512Z,96.45
2017-12-19T13:39:42.378Z,96.36
2017-12-19T13:40:52.238Z,96.26
2017-12-19T13:42:02.390Z,95.89
2017-12-19T13:43:12.530Z,95.7
2017-12-19T13:44:22.112Z,95.79
2017-12-19T13:45:32.229Z,95.79
2017-12-19T13:46:42.133Z,95.79
2017-12-19T13:47:52.251Z,95.89
2017-12-19T13:49:02.596Z,95.98
2017-12-19T13:50:12.471Z,95.98
2017-12-19T13:51:22.493Z,96.45
2017-12-19T13:52:32.681Z,95.98
2017-12-19T13:53:42.474Z,96.17
2017-12-19T13:54:52.304Z,96.45
2017-12-19T13:56:02.174Z,96.26
2017-12-19T13:57:12.294Z,95.89
2017-12-19T13:58:22.410Z,96.17
2017-12-19T13:59:32.283Z,96.55
2017-12-19T14:00:42.620Z,96.17
2017-12-19T14:01:52.783Z,96.36
2017-12-19T14:03:02.913Z,96.26
2017-12-19T14:04:13.054Z,96.36
2017-12-19T14:05:22.950Z,96.45
2017-12-19T14:06:32.722Z,96.08
2017-12-19T14:07:43.071Z,96.08
2017-12-19T14:08:53.208Z,95.98
2017-12-19T14:10:03.370Z,96.08
2017-12-19T14:11:13.255Z,95.98
2017-12-19T14:12:23.100Z,96.17
2017-12-19T14:13:32.953Z,96.17
2017-12-19T14:14:42.937Z,95.89
2017-12-19T14:15:53.128Z,95.89
2017-12-19T14:17:03.375Z,96.08
2017-12-19T14:18:13.488Z,96.17
2017-12-19T14:19:23.591Z,96.17
2017-12-19T14:20:33.720Z,95.79
2017-12-19T14:21:43.353Z,95.79
2017-12-19T14:22:52.851Z,96.26
2017-12-19T14:24:02.995Z,96.17
2017-12-19T14:25:12.957Z,96.26
2017-12-19T14:26:23.220Z,96.36
2017-12-19T14:27:35.415Z,96.55
2017-12-19T14:28:45.607Z,96.08
2017-12-19T14:29:55.760Z,96.64
2017-12-19T14:31:05.931Z,96.55
2017-12-19T14:32:16.065Z,96.55
2017-12-19T14:33:26.183Z,97.12
2017-12-19T14:34:36.373Z,96.83
2017-12-19T14:35:46.509Z,97.02
2017-12-19T14:36:56.784Z,96.83
2017-12-19T14:38:07.013Z,97.02
2017-12-19T14:39:17.147Z,96.83
2017-12-19T14:40:27.378Z,97.02
2017-12-19T14:41:37.513Z,97.02
2017-12-19T14:42:47.905Z,97.02
2017-12-19T14:43:58.117Z,97.12
2017-12-19T14:45:09.216Z,97.41
2017-12-19T14:46:19.393Z,97.22
2017-12-19T14:47:29.285Z,97.31
2017-12-19T14:48:39.495Z,97.12
2017-12-19T14:49:49.652Z,96.93
2017-12-19T14:50:59.816Z,96.93
2017-12-19T14:52:10.014Z,97.02
2017-12-19T14:53:19.969Z,96.93
2017-12-19T14:54:30.188Z,96.93
2017-12-19T14:55:40.363Z,96.93
2017-12-19T14:56:50.546Z,97.02
2017-12-19T14:58:00.317Z,96.93
2017-12-19T14:59:11.440Z,96.93
2017-12-19T15:00:21.675Z,96.74
2017-12-19T15:01:31.878Z,97.02
2017-12-19T15:02:41.739Z,97.12
2017-12-19T15:03:51.885Z,97.12
2017-12-19T15:05:02.110Z,97.31